RFD weather

Chicago Rockford International Airport
Chicago/Rockford, Illinois, United States

Public forecast

Using degrees Fahrenheit for public forecast. Weather courtesy of forecast.io.

METAR (pilot weather report)

Retrieved 2019/08/21 02:54 UTC (52 minutes ago):

KRFD 210254Z 00000KT 10SM FEW250 21/19 A2999 RMK AO2 SLP153 T02060194 51021

TAF (pilot weather forecast)

Retrieved 2019/08/21 02:33 UTC (1 hour ago):

TAF KRFD 210228Z 2102/2124 VRB03KT P6SM FEW040 SCT100 FM210800 VRB03KT 5SM BR FEW006 SCT040 SCT100 TEMPO 2109/2111 2SM BR BKN006 FM211100 31009KT 5SM BR OVC008 FM211300 32010KT P6SM BKN015 BKN150 FM211900 34012KT P6SM BKN035 BKN150